sensor_id;sensor_type;location;lat;lon;timestamp;pressure;altitude;pressure_sealevel;temperature;humidity
6090;BME280;3073;42.660;23.316;2023-09-19T00:01:06;94899.94;;;23.90;62.97
6090;BME280;3073;42.660;23.316;2023-09-19T00:03:34;94896.63;;;23.47;64.37
6090;BME280;3073;42.660;23.316;2023-09-19T00:06:04;94902.97;;;23.06;67.47
6090;BME280;3073;42.660;23.316;2023-09-19T00:08:33;94895.66;;;23.17;68.04
6090;BME280;3073;42.660;23.316;2023-09-19T00:11:00;94899.50;;;23.37;68.45
6090;BME280;3073;42.660;23.316;2023-09-19T00:13:31;94899.00;;;23.00;69.00
6090;BME280;3073;42.660;23.316;2023-09-19T00:15:59;94901.03;;;22.64;71.17
6090;BME280;3073;42.660;23.316;2023-09-19T00:18:26;94902.84;;;23.20;69.75
6090;BME280;3073;42.660;23.316;2023-09-19T00:20:57;94899.00;;;23.00;72.07
6090;BME280;3073;42.660;23.316;2023-09-19T00:23:25;94890.47;;;23.60;68.89
6090;BME280;3073;42.660;23.316;2023-09-19T00:25:52;94893.53;;;23.79;67.44
6090;BME280;3073;42.660;23.316;2023-09-19T00:28:22;94884.63;;;23.29;68.89
6090;BME280;3073;42.660;23.316;2023-09-19T00:30:49;94885.25;;;23.77;66.47
6090;BME280;3073;42.660;23.316;2023-09-19T00:33:16;94880.84;;;23.43;68.49
6090;BME280;3073;42.660;23.316;2023-09-19T00:35:47;94884.34;;;23.56;67.13
6090;BME280;3073;42.660;23.316;2023-09-19T00:38:14;94889.53;;;23.73;66.86
6090;BME280;3073;42.660;23.316;2023-09-19T00:40:44;94876.34;;;23.27;67.42
6090;BME280;3073;42.660;23.316;2023-09-19T00:43:11;94862.56;;;23.09;69.27
6090;BME280;3073;42.660;23.316;2023-09-19T00:45:39;94867.47;;;23.28;69.79
6090;BME280;3073;42.660;23.316;2023-09-19T00:48:08;94872.72;;;23.53;67.80
6090;BME280;3073;42.660;23.316;2023-09-19T00:50:36;94873.25;;;22.90;70.51
6090;BME280;3073;42.660;23.316;2023-09-19T00:53:05;94878.97;;;22.62;71.79
6090;BME280;3073;42.660;23.316;2023-09-19T00:55:34;94877.56;;;23.29;69.98
6090;BME280;3073;42.660;23.316;2023-09-19T00:58:04;94879.06;;;22.96;70.25
6090;BME280;3073;42.660;23.316;2023-09-19T01:00:32;94880.63;;;23.14;70.49
6090;BME280;3073;42.660;23.316;2023-09-19T01:03:00;94875.59;;;23.26;69.87
6090;BME280;3073;42.660;23.316;2023-09-19T01:05:27;94878.84;;;23.40;69.02
6090;BME280;3073;42.660;23.316;2023-09-19T01:07:55;94876.03;;;23.02;70.48
6090;BME280;3073;42.660;23.316;2023-09-19T01:10:22;94881.38;;;22.49;72.18
6090;BME280;3073;42.660;23.316;2023-09-19T01:12:55;94874.91;;;22.38;73.83
6090;BME280;3073;42.660;23.316;2023-09-19T01:15:38;94875.31;;;22.23;74.37
6090;BME280;3073;42.660;23.316;2023-09-19T01:18:19;94876.25;;;22.75;72.76
6090;BME280;3073;42.660;23.316;2023-09-19T01:20:55;94875.63;;;21.99;75.65
6090;BME280;3073;42.660;23.316;2023-09-19T01:23:29;94879.81;;;22.40;74.86
6090;BME280;3073;42.660;23.316;2023-09-19T01:26:07;94886.09;;;22.78;74.41
6090;BME280;3073;42.660;23.316;2023-09-19T01:28:52;94889.94;;;22.89;72.86
6090;BME280;3073;42.660;23.316;2023-09-19T01:31:23;94891.22;;;23.18;71.96
6090;BME280;3073;42.660;23.316;2023-09-19T01:33:55;94885.66;;;22.93;72.85
6090;BME280;3073;42.660;23.316;2023-09-19T01:36:31;94875.88;;;22.51;74.58
6090;BME280;3073;42.660;23.316;2023-09-19T01:38:59;94873.63;;;21.74;79.71
6090;BME280;3073;42.660;23.316;2023-09-19T01:41:41;94875.63;;;21.99;79.20
6090;BME280;3073;42.660;23.316;2023-09-19T01:44:17;94878.78;;;20.80;87.92
6090;BME280;3073;42.660;23.316;2023-09-19T01:46:47;94874.22;;;20.99;87.27
6090;BME280;3073;42.660;23.316;2023-09-19T01:49:23;94876.84;;;20.45;92.15
6090;BME280;3073;42.660;23.316;2023-09-19T01:51:58;94887.50;;;21.12;89.36
6090;BME280;3073;42.660;23.316;2023-09-19T01:54:33;94875.53;;;21.60;86.36
6090;BME280;3073;42.660;23.316;2023-09-19T01:57:07;94876.94;;;21.66;85.53
6090;BME280;3073;42.660;23.316;2023-09-19T01:59:44;94881.34;;;21.08;89.04
6090;BME280;3073;42.660;23.316;2023-09-19T02:02:14;94876.88;;;21.80;84.86
6090;BME280;3073;42.660;23.316;2023-09-19T02:04:44;94888.06;;;21.89;83.84
6090;BME280;3073;42.660;23.316;2023-09-19T02:07:10;94887.56;;;22.00;82.77
6090;BME280;3073;42.660;23.316;2023-09-19T02:09:37;94882.91;;;22.11;82.33
6090;BME280;3073;42.660;23.316;2023-09-19T02:12:05;94888.38;;;21.87;82.54
6090;BME280;3073;42.660;23.316;2023-09-19T02:14:32;94890.09;;;21.47;85.00
6090;BME280;3073;42.660;23.316;2023-09-19T02:17:01;94880.94;;;21.72;84.63
6090;BME280;3073;42.660;23.316;2023-09-19T02:19:30;94880.13;;;21.41;86.11
6090;BME280;3073;42.660;23.316;2023-09-19T02:21:59;94883.22;;;21.29;86.63
6090;BME280;3073;42.660;23.316;2023-09-19T02:24:28;94886.75;;;20.70;90.04
6090;BME280;3073;42.660;23.316;2023-09-19T02:26:56;94878.91;;;20.34;94.70
6090;BME280;3073;42.660;23.316;2023-09-19T02:29:25;94875.53;;;20.61;93.49
6090;BME280;3073;42.660;23.316;2023-09-19T02:31:52;94876.56;;;21.01;91.41
6090;BME280;3073;42.660;23.316;2023-09-19T02:34:21;94870.09;;;21.48;88.67
6090;BME280;3073;42.660;23.316;2023-09-19T02:36:50;94872.78;;;21.43;88.53
6090;BME280;3073;42.660;23.316;2023-09-19T02:39:19;94864.22;;;21.87;85.79
6090;BME280;3073;42.660;23.316;2023-09-19T02:41:46;94866.16;;;21.95;85.08
6090;BME280;3073;42.660;23.316;2023-09-19T02:44:13;94864.28;;;21.95;84.59
6090;BME280;3073;42.660;23.316;2023-09-19T02:46:40;94867.47;;;22.15;83.93
6090;BME280;3073;42.660;23.316;2023-09-19T02:49:07;94861.03;;;22.12;84.27
6090;BME280;3073;42.660;23.316;2023-09-19T02:51:34;94851.00;;;22.28;82.72
6090;BME280;3073;42.660;23.316;2023-09-19T02:54:03;94848.97;;;22.16;82.52
6090;BME280;3073;42.660;23.316;2023-09-19T02:56:29;94843.69;;;21.99;82.95
6090;BME280;3073;42.660;23.316;2023-09-19T02:58:58;94848.59;;;22.31;81.72
6090;BME280;3073;42.660;23.316;2023-09-19T03:01:26;94851.94;;;22.32;81.54
6090;BME280;3073;42.660;23.316;2023-09-19T03:03:53;94841.84;;;22.39;80.94
6090;BME280;3073;42.660;23.316;2023-09-19T03:06:20;94840.34;;;22.38;80.92
6090;BME280;3073;42.660;23.316;2023-09-19T03:08:47;94839.25;;;22.30;80.86
6090;BME280;3073;42.660;23.316;2023-09-19T03:11:18;94844.00;;;22.37;80.74
6090;BME280;3073;42.660;23.316;2023-09-19T03:13:51;94826.69;;;22.24;81.71
6090;BME280;3073;42.660;23.316;2023-09-19T03:16:18;94829.78;;;22.34;80.47
6090;BME280;3073;42.660;23.316;2023-09-19T03:18:47;94833.72;;;22.32;80.36
6090;BME280;3073;42.660;23.316;2023-09-19T03:21:14;94835.25;;;22.24;80.58
6090;BME280;3073;42.660;23.316;2023-09-19T03:23:41;94838.75;;;22.20;81.16
6090;BME280;3073;42.660;23.316;2023-09-19T03:26:11;94830.75;;;22.08;81.09
6090;BME280;3073;42.660;23.316;2023-09-19T03:28:39;94833.72;;;21.92;82.20
6090;BME280;3073;42.660;23.316;2023-09-19T03:31:06;94835.72;;;21.95;82.15
6090;BME280;3073;42.660;23.316;2023-09-19T03:33:33;94835.13;;;21.98;81.55
6090;BME280;3073;42.660;23.316;2023-09-19T03:36:01;94839.09;;;21.96;82.23
6090;BME280;3073;42.660;23.316;2023-09-19T03:38:30;94841.34;;;21.67;84.38
6090;BME280;3073;42.660;23.316;2023-09-19T03:40:58;94843.41;;;21.78;83.57
6090;BME280;3073;42.660;23.316;2023-09-19T03:43:25;94849.50;;;21.51;85.36
6090;BME280;3073;42.660;23.316;2023-09-19T03:45:53;94854.75;;;21.38;86.58
6090;BME280;3073;42.660;23.316;2023-09-19T03:48:21;94847.31;;;21.67;84.67
6090;BME280;3073;42.660;23.316;2023-09-19T03:50:48;94848.00;;;21.59;84.53
6090;BME280;3073;42.660;23.316;2023-09-19T03:53:16;94859.47;;;20.86;89.02
6090;BME280;3073;42.660;23.316;2023-09-19T03:55:44;94859.00;;;20.71;90.89
6090;BME280;3073;42.660;23.316;2023-09-19T03:58:11;94859.31;;;21.05;89.64
6090;BME280;3073;42.660;23.316;2023-09-19T04:00:38;94859.03;;;21.20;88.40
6090;BME280;3073;42.660;23.316;2023-09-19T04:03:06;94861.69;;;21.29;87.25
6090;BME280;3073;42.660;23.316;2023-09-19T04:05:33;94851.84;;;21.17;87.49
6090;BME280;3073;42.660;23.316;2023-09-19T04:08:00;94860.97;;;21.15;87.89
6090;BME280;3073;42.660;23.316;2023-09-19T04:10:27;94867.50;;;20.98;88.99
6090;BME280;3073;42.660;23.316;2023-09-19T04:13:00;94872.69;;;20.17;94.68
6090;BME280;3073;42.660;23.316;2023-09-19T04:15:26;94875.03;;;20.32;94.92
6090;BME280;3073;42.660;23.316;2023-09-19T04:17:53;94876.84;;;20.18;95.86
6090;BME280;3073;42.660;23.316;2023-09-19T04:20:21;94882.44;;;20.52;93.96
6090;BME280;3073;42.660;23.316;2023-09-19T04:22:49;94876.97;;;20.67;92.91
6090;BME280;3073;42.660;23.316;2023-09-19T04:25:16;94871.97;;;20.84;91.76
6090;BME280;3073;42.660;23.316;2023-09-19T04:27:44;94873.28;;;20.95;90.82
6090;BME280;3073;42.660;23.316;2023-09-19T04:30:12;94863.44;;;21.20;89.98
6090;BME280;3073;42.660;23.316;2023-09-19T04:32:40;94861.47;;;21.39;88.99
6090;BME280;3073;42.660;23.316;2023-09-19T04:35:08;94864.59;;;21.27;89.09
6090;BME280;3073;42.660;23.316;2023-09-19T04:37:38;94870.91;;;21.35;88.53
6090;BME280;3073;42.660;23.316;2023-09-19T04:40:07;94874.22;;;21.49;88.67
6090;BME280;3073;42.660;23.316;2023-09-19T04:42:39;94858.75;;;21.66;87.62
6090;BME280;3073;42.660;23.316;2023-09-19T04:45:07;94851.78;;;21.97;85.50
6090;BME280;3073;42.660;23.316;2023-09-19T04:47:36;94857.00;;;21.97;85.60
6090;BME280;3073;42.660;23.316;2023-09-19T04:50:06;94855.94;;;22.38;83.06
6090;BME280;3073;42.660;23.316;2023-09-19T04:52:33;94863.00;;;22.46;82.69
6090;BME280;3073;42.660;23.316;2023-09-19T04:55:01;94858.72;;;22.41;82.35
6090;BME280;3073;42.660;23.316;2023-09-19T04:57:30;94849.09;;;22.50;81.51
6090;BME280;3073;42.660;23.316;2023-09-19T04:59:56;94849.25;;;22.54;82.05
6090;BME280;3073;42.660;23.316;2023-09-19T05:02:24;94847.72;;;23.01;80.20
6090;BME280;3073;42.660;23.316;2023-09-19T05:04:50;94843.56;;;23.17;79.91
6090;BME280;3073;42.660;23.316;2023-09-19T05:07:19;94842.19;;;23.37;77.49
6090;BME280;3073;42.660;23.316;2023-09-19T05:09:51;94845.44;;;24.23;74.63
6090;BME280;3073;42.660;23.316;2023-09-19T05:12:19;94851.88;;;24.26;71.90
6090;BME280;3073;42.660;23.316;2023-09-19T05:14:47;94854.94;;;24.95;69.87
6090;BME280;3073;42.660;23.316;2023-09-19T05:17:13;94847.13;;;25.69;66.69
6090;BME280;3073;42.660;23.316;2023-09-19T05:19:42;94841.41;;;26.21;64.86
6090;BME280;3073;42.660;23.316;2023-09-19T05:22:09;94850.34;;;26.80;61.26
6090;BME280;3073;42.660;23.316;2023-09-19T05:24:36;94849.22;;;27.05;59.90
6090;BME280;3073;42.660;23.316;2023-09-19T05:27:04;94845.00;;;27.01;57.96
6090;BME280;3073;42.660;23.316;2023-09-19T05:29:34;94847.00;;;27.32;57.07
6090;BME280;3073;42.660;23.316;2023-09-19T05:32:01;94839.44;;;26.90;58.52
6090;BME280;3073;42.660;23.316;2023-09-19T05:34:29;94832.91;;;27.64;56.58
6090;BME280;3073;42.660;23.316;2023-09-19T05:36:56;94837.09;;;27.53;56.31
6090;BME280;3073;42.660;23.316;2023-09-19T05:39:22;94839.53;;;27.46;55.72
6090;BME280;3073;42.660;23.316;2023-09-19T05:41:49;94845.00;;;27.41;56.09
6090;BME280;3073;42.660;23.316;2023-09-19T05:44:16;94835.94;;;26.74;57.50
6090;BME280;3073;42.660;23.316;2023-09-19T05:46:44;94838.34;;;26.19;58.75
6090;BME280;3073;42.660;23.316;2023-09-19T05:49:13;94830.63;;;26.46;58.24
6090;BME280;3073;42.660;23.316;2023-09-19T05:51:41;94833.34;;;26.38;58.76
6090;BME280;3073;42.660;23.316;2023-09-19T05:54:08;94828.97;;;26.54;57.85
6090;BME280;3073;42.660;23.316;2023-09-19T05:56:36;94832.03;;;26.44;58.35
6090;BME280;3073;42.660;23.316;2023-09-19T05:59:03;94830.16;;;26.93;57.61
6090;BME280;3073;42.660;23.316;2023-09-19T06:01:30;94832.41;;;27.19;56.95
6090;BME280;3073;42.660;23.316;2023-09-19T06:04:01;94832.88;;;27.08;56.86
6090;BME280;3073;42.660;23.316;2023-09-19T06:06:28;94825.00;;;27.36;55.90
6090;BME280;3073;42.660;23.316;2023-09-19T06:08:55;94818.06;;;27.28;56.52
6090;BME280;3073;42.660;23.316;2023-09-19T06:11:23;94829.81;;;27.90;55.26
6090;BME280;3073;42.660;23.316;2023-09-19T06:13:51;94823.03;;;27.89;54.67
6090;BME280;3073;42.660;23.316;2023-09-19T06:16:18;94824.09;;;27.72;55.33
6090;BME280;3073;42.660;23.316;2023-09-19T06:18:55;94818.53;;;28.17;54.43
6090;BME280;3073;42.660;23.316;2023-09-19T06:21:23;94822.47;;;27.95;53.34
6090;BME280;3073;42.660;23.316;2023-09-19T06:23:52;94813.16;;;27.98;53.79
6090;BME280;3073;42.660;23.316;2023-09-19T06:26:19;94811.91;;;28.07;54.50
6090;BME280;3073;42.660;23.316;2023-09-19T06:28:45;94811.53;;;29.06;52.42
6090;BME280;3073;42.660;23.316;2023-09-19T06:31:12;94814.66;;;29.50;50.89
6090;BME280;3073;42.660;23.316;2023-09-19T06:33:39;94811.00;;;29.55;50.36
6090;BME280;3073;42.660;23.316;2023-09-19T06:36:06;94806.31;;;30.32;47.64
6090;BME280;3073;42.660;23.316;2023-09-19T06:38:35;94811.03;;;30.46;47.63
6090;BME280;3073;42.660;23.316;2023-09-19T06:41:02;94815.25;;;29.82;47.59
6090;BME280;3073;42.660;23.316;2023-09-19T06:43:30;94820.72;;;30.38;47.26
6090;BME280;3073;42.660;23.316;2023-09-19T06:45:59;94818.84;;;29.93;46.97
6090;BME280;3073;42.660;23.316;2023-09-19T06:48:26;94826.66;;;29.48;48.43
6090;BME280;3073;42.660;23.316;2023-09-19T06:50:54;94824.88;;;28.98;48.61
6090;BME280;3073;42.660;23.316;2023-09-19T06:53:21;94820.59;;;27.96;51.78
6090;BME280;3073;42.660;23.316;2023-09-19T06:55:51;94825.03;;;28.07;51.49
6090;BME280;3073;42.660;23.316;2023-09-19T06:58:18;94822.56;;;28.96;50.25
6090;BME280;3073;42.660;23.316;2023-09-19T07:00:45;94826.81;;;28.66;49.76
6090;BME280;3073;42.660;23.316;2023-09-19T07:03:14;94831.03;;;28.39;50.60
6090;BME280;3073;42.660;23.316;2023-09-19T07:05:41;94828.53;;;29.12;49.49
6090;BME280;3073;42.660;23.316;2023-09-19T07:08:10;94833.69;;;29.44;49.32
6090;BME280;3073;42.660;23.316;2023-09-19T07:10:38;94828.22;;;29.52;48.33
6090;BME280;3073;42.660;23.316;2023-09-19T07:13:08;94830.97;;;29.21;48.27
6090;BME280;3073;42.660;23.316;2023-09-19T07:15:37;94826.59;;;28.90;48.71
6090;BME280;3073;42.660;23.316;2023-09-19T07:18:07;94831.13;;;28.43;49.90
6090;BME280;3073;42.660;23.316;2023-09-19T07:20:36;94834.63;;;29.17;48.96
6090;BME280;3073;42.660;23.316;2023-09-19T07:23:03;94831.91;;;29.48;48.43
6090;BME280;3073;42.660;23.316;2023-09-19T07:25:31;94840.19;;;30.11;47.64
6090;BME280;3073;42.660;23.316;2023-09-19T07:27:58;94830.28;;;29.62;46.93
6090;BME280;3073;42.660;23.316;2023-09-19T07:30:28;94825.56;;;30.13;46.80
6090;BME280;3073;42.660;23.316;2023-09-19T07:32:55;94831.25;;;29.16;48.10
6090;BME280;3073;42.660;23.316;2023-09-19T07:35:22;94827.88;;;28.02;50.70
6090;BME280;3073;42.660;23.316;2023-09-19T07:37:49;94835.38;;;28.32;51.06
6090;BME280;3073;42.660;23.316;2023-09-19T07:40:17;94834.69;;;28.66;51.18
6090;BME280;3073;42.660;23.316;2023-09-19T07:42:44;94828.34;;;29.21;50.21
6090;BME280;3073;42.660;23.316;2023-09-19T07:45:12;94831.59;;;29.14;49.42
6090;BME280;3073;42.660;23.316;2023-09-19T07:47:45;94835.34;;;29.71;48.59
6090;BME280;3073;42.660;23.316;2023-09-19T07:50:13;94836.81;;;29.69;47.56
6090;BME280;3073;42.660;23.316;2023-09-19T07:52:41;94836.19;;;29.75;47.70
6090;BME280;3073;42.660;23.316;2023-09-19T07:55:08;94842.13;;;29.91;47.37
6090;BME280;3073;42.660;23.316;2023-09-19T07:57:36;94838.41;;;29.54;48.40
6090;BME280;3073;42.660;23.316;2023-09-19T08:00:07;94840.31;;;29.19;48.92
6090;BME280;3073;42.660;23.316;2023-09-19T08:02:37;94847.41;;;30.14;47.34
6090;BME280;3073;42.660;23.316;2023-09-19T08:05:05;94839.50;;;29.91;47.39
6090;BME280;3073;42.660;23.316;2023-09-19T08:07:36;94833.94;;;29.77;47.83
6090;BME280;3073;42.660;23.316;2023-09-19T08:10:03;94831.84;;;30.77;46.53
6090;BME280;3073;42.660;23.316;2023-09-19T08:12:33;94818.78;;;30.58;46.22
6090;BME280;3073;42.660;23.316;2023-09-19T08:15:01;94819.47;;;30.55;46.06
6090;BME280;3073;42.660;23.316;2023-09-19T08:17:28;94819.25;;;30.41;45.56
6090;BME280;3073;42.660;23.316;2023-09-19T08:19:55;94816.84;;;31.41;44.51
6090;BME280;3073;42.660;23.316;2023-09-19T08:22:24;94818.06;;;31.17;44.62
6090;BME280;3073;42.660;23.316;2023-09-19T08:24:52;94807.63;;;30.68;45.35
6090;BME280;3073;42.660;23.316;2023-09-19T08:27:19;94806.47;;;30.95;44.97
6090;BME280;3073;42.660;23.316;2023-09-19T08:29:46;94808.09;;;31.33;44.42
6090;BME280;3073;42.660;23.316;2023-09-19T08:32:13;94812.53;;;31.99;43.19
6090;BME280;3073;42.660;23.316;2023-09-19T08:34:40;94817.97;;;30.08;45.86
6090;BME280;3073;42.660;23.316;2023-09-19T08:37:07;94818.91;;;30.20;45.93
6090;BME280;3073;42.660;23.316;2023-09-19T08:39:36;94823.53;;;30.75;45.03
6090;BME280;3073;42.660;23.316;2023-09-19T08:42:03;94815.00;;;31.45;45.07
6090;BME280;3073;42.660;23.316;2023-09-19T08:44:36;94817.84;;;32.03;43.09
6090;BME280;3073;42.660;23.316;2023-09-19T08:47:09;94819.66;;;32.87;41.58
6090;BME280;3073;42.660;23.316;2023-09-19T08:49:44;94818.16;;;32.35;41.83
6090;BME280;3073;42.660;23.316;2023-09-19T08:52:20;94810.38;;;32.56;41.89
6090;BME280;3073;42.660;23.316;2023-09-19T08:54:52;94811.50;;;33.17;41.12
6090;BME280;3073;42.660;23.316;2023-09-19T08:57:21;94803.34;;;33.60;40.27
6090;BME280;3073;42.660;23.316;2023-09-19T08:59:49;94809.34;;;33.47;40.66
6090;BME280;3073;42.660;23.316;2023-09-19T09:02:18;94798.06;;;31.83;42.09
6090;BME280;3073;42.660;23.316;2023-09-19T09:04:46;94798.47;;;30.88;43.59
6090;BME280;3073;42.660;23.316;2023-09-19T09:07:14;94798.84;;;31.87;42.50
6090;BME280;3073;42.660;23.316;2023-09-19T09:09:42;94799.81;;;31.68;43.61
6090;BME280;3073;42.660;23.316;2023-09-19T09:12:12;94796.00;;;32.53;42.50
6090;BME280;3073;42.660;23.316;2023-09-19T09:14:40;94806.81;;;32.85;41.79
6090;BME280;3073;42.660;23.316;2023-09-19T09:17:08;94797.53;;;33.20;40.60
6090;BME280;3073;42.660;23.316;2023-09-19T09:19:35;94797.19;;;33.21;40.30
6090;BME280;3073;42.660;23.316;2023-09-19T09:22:07;94792.44;;;33.69;40.71
6090;BME280;3073;42.660;23.316;2023-09-19T09:24:34;94784.53;;;34.61;39.34
6090;BME280;3073;42.660;23.316;2023-09-19T09:27:04;94787.84;;;34.97;37.84
6090;BME280;3073;42.660;23.316;2023-09-19T09:29:45;94785.16;;;35.07;37.19
6090;BME280;3073;42.660;23.316;2023-09-19T09:32:19;94778.50;;;34.39;38.61
6090;BME280;3073;42.660;23.316;2023-09-19T09:34:50;94780.69;;;33.74;38.79
6090;BME280;3073;42.660;23.316;2023-09-19T09:37:18;94776.59;;;34.19;38.76
6090;BME280;3073;42.660;23.316;2023-09-19T09:39:53;94772.81;;;34.27;37.98
6090;BME280;3073;42.660;23.316;2023-09-19T09:42:32;94773.91;;;33.83;39.42
6090;BME280;3073;42.660;23.316;2023-09-19T09:45:16;94763.19;;;35.10;37.70
6090;BME280;3073;42.660;23.316;2023-09-19T09:47:44;94762.50;;;34.89;37.60
6090;BME280;3073;42.660;23.316;2023-09-19T09:50:26;94760.16;;;36.33;35.98
6090;BME280;3073;42.660;23.316;2023-09-19T09:52:55;94758.06;;;36.51;35.73
6090;BME280;3073;42.660;23.316;2023-09-19T09:56:03;94754.28;;;36.89;35.18
6090;BME280;3073;42.660;23.316;2023-09-19T09:58:32;94755.03;;;37.77;34.06
6090;BME280;3073;42.660;23.316;2023-09-19T10:01:02;94745.78;;;37.01;34.38
6090;BME280;3073;42.660;23.316;2023-09-19T10:03:35;94745.06;;;36.23;34.70
6090;BME280;3073;42.660;23.316;2023-09-19T10:06:06;94742.34;;;35.05;36.32
6090;BME280;3073;42.660;23.316;2023-09-19T10:09:04;94752.72;;;35.55;35.82
6090;BME280;3073;42.660;23.316;2023-09-19T10:11:41;94750.72;;;35.73;36.02
6090;BME280;3073;42.660;23.316;2023-09-19T10:14:11;94742.75;;;34.93;37.07
6090;BME280;3073;42.660;23.316;2023-09-19T10:16:46;94739.88;;;34.13;37.21
6090;BME280;3073;42.660;23.316;2023-09-19T10:19:16;94742.13;;;33.87;38.90
6090;BME280;3073;42.660;23.316;2023-09-19T10:21:43;94743.22;;;33.57;39.04
6090;BME280;3073;42.660;23.316;2023-09-19T10:24:13;94740.22;;;32.62;40.24
6090;BME280;3073;42.660;23.316;2023-09-19T10:26:42;94736.72;;;32.47;39.98
6090;BME280;3073;42.660;23.316;2023-09-19T10:29:12;94738.16;;;32.34;41.20
6090;BME280;3073;42.660;23.316;2023-09-19T10:31:44;94742.41;;;33.43;39.35
6090;BME280;3073;42.660;23.316;2023-09-19T10:34:14;94736.84;;;34.04;38.81
6090;BME280;3073;42.660;23.316;2023-09-19T10:36:44;94733.03;;;34.37;38.85
6090;BME280;3073;42.660;23.316;2023-09-19T10:39:14;94732.66;;;33.96;38.58
6090;BME280;3073;42.660;23.316;2023-09-19T10:41:49;94730.03;;;34.32;38.90
6090;BME280;3073;42.660;23.316;2023-09-19T10:44:23;94736.03;;;33.54;39.57
6090;BME280;3073;42.660;23.316;2023-09-19T10:46:52;94723.91;;;33.50;38.59
6090;BME280;3073;42.660;23.316;2023-09-19T10:49:20;94729.19;;;33.50;39.05
6090;BME280;3073;42.660;23.316;2023-09-19T10:51:50;94722.81;;;33.93;38.25
6090;BME280;3073;42.660;23.316;2023-09-19T10:54:23;94721.25;;;33.50;39.05
6090;BME280;3073;42.660;23.316;2023-09-19T10:56:54;94717.47;;;33.37;38.69
6090;BME280;3073;42.660;23.316;2023-09-19T10:59:24;94717.69;;;32.96;39.52
6090;BME280;3073;42.660;23.316;2023-09-19T11:02:16;94709.75;;;32.93;39.88
6090;BME280;3073;42.660;23.316;2023-09-19T11:04:45;94712.34;;;32.13;41.17
6090;BME280;3073;42.660;23.316;2023-09-19T11:07:14;94702.22;;;30.68;43.71
6090;BME280;3073;42.660;23.316;2023-09-19T11:09:46;94707.78;;;30.63;44.68
6090;BME280;3073;42.660;23.316;2023-09-19T11:18:59;94703.44;;;32.43;42.05
6090;BME280;3073;42.660;23.316;2023-09-19T11:21:43;94703.81;;;32.38;41.37
6090;BME280;3073;42.660;23.316;2023-09-19T11:24:30;94694.44;;;31.49;43.06
6090;BME280;3073;42.660;23.316;2023-09-19T11:27:10;94694.75;;;31.44;42.52
6090;BME280;3073;42.660;23.316;2023-09-19T11:29:39;94687.56;;;31.00;43.37
6090;BME280;3073;42.660;23.316;2023-09-19T11:32:06;94684.59;;;31.05;43.59
6090;BME280;3073;42.660;23.316;2023-09-19T11:34:41;94681.88;;;31.35;43.57
6090;BME280;3073;42.660;23.316;2023-09-19T11:40:47;94675.19;;;33.72;40.13
6090;BME280;3073;42.660;23.316;2023-09-19T11:43:30;94672.09;;;34.20;38.86
6090;BME280;3073;42.660;23.316;2023-09-19T11:46:06;94660.41;;;33.96;38.25
6090;BME280;3073;42.660;23.316;2023-09-19T11:48:34;94653.97;;;34.18;39.41
6090;BME280;3073;42.660;23.316;2023-09-19T11:51:20;94646.75;;;33.20;39.74
6090;BME280;3073;42.660;23.316;2023-09-19T11:53:54;94646.41;;;33.88;38.49
6090;BME280;3073;42.660;23.316;2023-09-19T11:56:22;94654.31;;;33.21;39.22
6090;BME280;3073;42.660;23.316;2023-09-19T11:58:52;94649.03;;;33.60;38.71
6090;BME280;3073;42.660;23.316;2023-09-19T12:01:29;94654.59;;;34.57;37.96
6090;BME280;3073;42.660;23.316;2023-09-19T12:04:01;94659.78;;;35.55;36.91
6090;BME280;3073;42.660;23.316;2023-09-19T12:06:31;94654.38;;;36.47;36.06
6090;BME280;3073;42.660;23.316;2023-09-19T12:08:59;94642.47;;;35.84;35.33
6090;BME280;3073;42.660;23.316;2023-09-19T12:11:32;94632.41;;;34.16;37.52
6090;BME280;3073;42.660;23.316;2023-09-19T12:14:01;94634.59;;;32.97;39.89
6090;BME280;3073;42.660;23.316;2023-09-19T12:16:31;94628.59;;;35.07;37.23
6090;BME280;3073;42.660;23.316;2023-09-19T12:19:17;94627.88;;;33.88;38.07
6090;BME280;3073;42.660;23.316;2023-09-19T12:21:59;94627.09;;;33.21;39.22
6090;BME280;3073;42.660;23.316;2023-09-19T12:24:37;94620.94;;;34.40;37.63
6090;BME280;3073;42.660;23.316;2023-09-19T12:27:09;94616.50;;;35.61;36.91
6090;BME280;3073;42.660;23.316;2023-09-19T12:29:44;94619.63;;;37.49;34.51
6090;BME280;3073;42.660;23.316;2023-09-19T12:32:12;94614.91;;;38.46;33.42
6090;BME280;3073;42.660;23.316;2023-09-19T12:34:42;94614.13;;;39.01;32.35
6090;BME280;3073;42.660;23.316;2023-09-19T12:37:12;94609.19;;;39.35;32.15
6090;BME280;3073;42.660;23.316;2023-09-19T12:39:45;94607.75;;;39.31;31.65
6090;BME280;3073;42.660;23.316;2023-09-19T12:42:15;94609.41;;;39.57;31.22
6090;BME280;3073;42.660;23.316;2023-09-19T12:44:44;94600.72;;;40.43;30.30
6090;BME280;3073;42.660;23.316;2023-09-19T12:47:13;94601.69;;;39.91;30.79
6090;BME280;3073;42.660;23.316;2023-09-19T12:50:06;94604.75;;;38.37;31.82
6090;BME280;3073;42.660;23.316;2023-09-19T12:52:41;94602.25;;;37.64;33.12
6090;BME280;3073;42.660;23.316;2023-09-19T12:55:19;94600.28;;;39.06;32.28
6090;BME280;3073;42.660;23.316;2023-09-19T12:57:58;94606.63;;;38.96;31.59
6090;BME280;3073;42.660;23.316;2023-09-19T13:00:32;94601.16;;;39.51;30.86
6090;BME280;3073;42.660;23.316;2023-09-19T13:03:13;94591.06;;;38.16;32.23
6090;BME280;3073;42.660;23.316;2023-09-19T13:05:52;94584.03;;;38.25;31.92
6090;BME280;3073;42.660;23.316;2023-09-19T13:08:24;94579.03;;;39.35;31.44
6090;BME280;3073;42.660;23.316;2023-09-19T13:11:07;94574.88;;;37.37;32.86
6090;BME280;3073;42.660;23.316;2023-09-19T13:13:40;94582.72;;;37.47;33.18
6090;BME280;3073;42.660;23.316;2023-09-19T13:16:09;94589.66;;;36.61;33.82
6090;BME280;3073;42.660;23.316;2023-09-19T13:18:44;94583.59;;;36.60;34.02
6090;BME280;3073;42.660;23.316;2023-09-19T13:21:12;94576.63;;;37.24;33.63
6090;BME280;3073;42.660;23.316;2023-09-19T13:23:49;94575.16;;;38.12;33.09
6090;BME280;3073;42.660;23.316;2023-09-19T13:26:17;94563.66;;;39.06;31.94
6090;BME280;3073;42.660;23.316;2023-09-19T13:28:43;94566.13;;;39.33;31.16
6090;BME280;3073;42.660;23.316;2023-09-19T13:31:10;94554.22;;;38.10;32.45
6090;BME280;3073;42.660;23.316;2023-09-19T13:33:42;94555.38;;;37.67;33.10
6090;BME280;3073;42.660;23.316;2023-09-19T13:36:09;94558.06;;;38.09;32.58